Time;durP1;ratioP1;P1;durP2;ratioP2;P2;SDS_P1;SDS_P2;PMS_P1;PMS_P2;Temp;Humidity;BMP_temperature;BMP_pressure;BME280_temperature;BME280_humidity;BME280_pressure;Samples;Min_cycle;Max_cycle;Signal;HPM_P1;HPM_P2
2022/03/31 17:27:25;;;;;;;27.67;20.60;;;;;;;;;;5136895;27;20612;-83
2022/03/31 17:29:55;;;;;;;26.77;20.63;;;;;;;;;;5136943;27;20206;-82
2022/03/31 17:32:23;;;;;;;25.23;20.57;;;;;;;;;;5136714;27;20205;-81
2022/03/31 17:34:50;;;;;;;27.83;21.07;;;;;;;;;;5137484;27;20202;-80
2022/03/31 17:37:17;;;;;;;29.20;22.27;;;;;;;;;;5137152;27;20238;-83
2022/03/31 17:39:45;;;;;;;28.27;22.00;;;;;;;;;;5137780;27;20202;-81
2022/03/31 17:42:13;;;;;;;29.07;23.00;;;;;;;;;;5129056;27;20206;-79
2022/03/31 17:44:44;;;;;;;30.20;22.60;;;;;;;;;;5134113;27;20221;-82
2022/03/31 17:47:14;;;;;;;30.37;23.23;;;;;;;;;;5176589;22;20622;-83
2022/03/31 17:49:44;;;;;;;29.37;22.70;;;;;;;;;;5080205;28;20211;-83
2022/03/31 17:58:45;;;;;;;33.33;24.03;;;;;;;;;;4961918;28;20220;-84
2022/03/31 18:19:30;;;;;;;52.50;31.00;;;;;;;;;;5098247;22;20217;-84
2022/03/31 18:21:59;;;;;;;53.37;31.27;;;;;;;;;;5082595;28;20262;-84
2022/03/31 18:38:06;;;;;;;103.20;38.00;;;;;;;;;;5006595;28;20292;-78
2022/03/31 18:43:23;;;;;;;108.13;38.87;;;;;;;;;;5012332;28;20203;-85
2022/03/31 18:45:53;;;;;;;125.00;40.00;;;;;;;;;;5007686;28;20199;-87
2022/03/31 18:48:21;;;;;;;116.13;40.23;;;;;;;;;;5013803;28;20218;-83
2022/03/31 18:50:49;;;;;;;135.97;41.03;;;;;;;;;;5005690;28;20974;-79
2022/03/31 18:53:18;;;;;;;126.83;40.97;;;;;;;;;;5007951;28;20203;-82
2022/03/31 18:55:46;;;;;;;154.47;43.77;;;;;;;;;;5000527;28;20219;-84
2022/03/31 19:01:01;;;;;;;158.73;43.40;;;;;;;;;;5003147;28;20203;-87
2022/03/31 19:03:28;;;;;;;140.90;45.17;;;;;;;;;;5028955;28;20286;-79
2022/03/31 19:06:57;;;;;;;134.30;43.27;;;;;;;;;;4998170;28;20218;-81
2022/03/31 19:08:46;;;;;;;210.60;45.07;;;;;;;;;;5004524;28;20223;-79
2022/03/31 19:11:13;;;;;;;167.77;44.23;;;;;;;;;;4995863;28;20246;-81
2022/03/31 19:13:41;;;;;;;163.50;42.93;;;;;;;;;;5002735;28;20203;-78
2022/03/31 19:16:09;;;;;;;141.57;40.93;;;;;;;;;;5007506;28;20266;-79
2022/03/31 19:18:36;;;;;;;167.50;43.50;;;;;;;;;;5004105;28;20352;-78
2022/03/31 19:21:03;;;;;;;150.10;43.40;;;;;;;;;;5000258;28;20271;-78
2022/03/31 19:23:31;;;;;;;145.60;42.47;;;;;;;;;;5008163;28;20199;-79
2022/03/31 19:26:00;;;;;;;180.23;45.77;;;;;;;;;;5005941;28;20194;-79
2022/03/31 19:28:27;;;;;;;170.20;42.40;;;;;;;;;;5002364;28;20245;-79
2022/03/31 19:30:54;;;;;;;157.43;43.97;;;;;;;;;;5003088;28;20206;-79
2022/03/31 19:33:23;;;;;;;197.30;45.87;;;;;;;;;;5005928;28;20250;-79
2022/03/31 19:35:50;;;;;;;192.27;47.67;;;;;;;;;;5005958;28;20218;-79
2022/03/31 19:38:18;;;;;;;199.60;48.20;;;;;;;;;;5003642;28;20273;-79
2022/03/31 19:40:45;;;;;;;232.17;48.17;;;;;;;;;;5003883;28;20787;-80
2022/03/31 19:43:14;;;;;;;203.97;47.23;;;;;;;;;;5000849;28;20206;-79
2022/03/31 19:45:42;;;;;;;220.20;48.33;;;;;;;;;;5009455;28;20207;-80
2022/03/31 19:48:11;;;;;;;168.90;47.03;;;;;;;;;;5006573;28;20238;-79
2022/03/31 19:50:41;;;;;;;247.23;48.67;;;;;;;;;;4999992;28;20215;-79
2022/03/31 19:53:08;;;;;;;234.20;48.60;;;;;;;;;;5003698;28;20290;-80
2022/03/31 19:55:36;;;;;;;226.23;47.77;;;;;;;;;;5005705;28;20289;-79
2022/03/31 19:58:04;;;;;;;242.67;47.53;;;;;;;;;;5005327;28;20282;-79
2022/03/31 20:00:32;;;;;;;233.33;49.00;;;;;;;;;;5006630;28;20210;-79
2022/03/31 20:03:00;;;;;;;233.13;48.43;;;;;;;;;;5004144;28;20273;-79
2022/03/31 20:05:32;;;;;;;248.60;48.53;;;;;;;;;;4996904;28;20211;-79
2022/03/31 20:08:00;;;;;;;259.30;48.90;;;;;;;;;;5003576;28;20290;-79
2022/03/31 20:10:28;;;;;;;222.83;46.57;;;;;;;;;;5002935;28;20230;-80
2022/03/31 20:12:56;;;;;;;343.57;50.97;;;;;;;;;;5003185;28;20207;-79
2022/03/31 20:15:24;;;;;;;186.27;46.30;;;;;;;;;;5000752;28;20707;-79
2022/03/31 20:17:53;;;;;;;340.13;51.73;;;;;;;;;;5003643;28;20230;-79
2022/03/31 20:20:20;;;;;;;204.93;47.93;;;;;;;;;;5002190;28;20215;-79
2022/03/31 20:22:47;;;;;;;248.47;47.93;;;;;;;;;;5000481;28;20199;-80
2022/03/31 20:25:15;;;;;;;265.00;49.13;;;;;;;;;;5000487;28;20248;-79
2022/03/31 20:27:44;;;;;;;235.20;48.50;;;;;;;;;;5004839;28;20214;-79
2022/03/31 20:30:12;;;;;;;259.47;46.80;;;;;;;;;;5019442;28;20241;-79
2022/03/31 20:32:40;;;;;;;211.80;46.27;;;;;;;;;;5013466;28;20206;-79
2022/03/31 20:35:09;;;;;;;282.97;47.83;;;;;;;;;;5005694;28;20203;-79
2022/03/31 20:37:37;;;;;;;257.80;45.67;;;;;;;;;;5005286;28;20697;-79
2022/03/31 20:40:05;;;;;;;253.90;46.90;;;;;;;;;;4998691;28;20262;-81
2022/03/31 20:42:33;;;;;;;256.07;48.37;;;;;;;;;;5014718;28;20253;-79
2022/03/31 20:45:00;;;;;;;245.67;48.67;;;;;;;;;;5005490;28;20253;-79
2022/03/31 20:47:27;;;;;;;287.00;49.53;;;;;;;;;;5011675;28;20246;-78
2022/03/31 20:49:55;;;;;;;296.60;47.40;;;;;;;;;;4994839;28;20203;-78
2022/03/31 20:52:24;;;;;;;281.23;48.83;;;;;;;;;;5000609;28;20207;-78
2022/03/31 20:54:51;;;;;;;288.37;50.90;;;;;;;;;;4999805;28;20215;-79
2022/03/31 20:57:18;;;;;;;274.87;48.33;;;;;;;;;;5005240;28;20251;-79
2022/03/31 20:59:45;;;;;;;194.93;47.87;;;;;;;;;;4999263;28;20200;-79
2022/03/31 21:02:13;;;;;;;410.30;51.30;;;;;;;;;;4993704;28;20302;-79
2022/03/31 21:04:40;;;;;;;256.23;48.37;;;;;;;;;;4999365;28;20203;-79
2022/03/31 21:07:07;;;;;;;263.23;48.93;;;;;;;;;;4996363;28;20263;-79
2022/03/31 21:09:36;;;;;;;230.63;46.63;;;;;;;;;;4993670;28;20207;-78
2022/03/31 21:12:04;;;;;;;252.13;47.20;;;;;;;;;;5004914;28;20688;-78
2022/03/31 21:14:32;;;;;;;295.37;48.37;;;;;;;;;;5006695;28;20203;-78
2022/03/31 21:16:59;;;;;;;301.83;49.57;;;;;;;;;;4992741;28;20231;-78
2022/03/31 21:19:27;;;;;;;239.03;47.97;;;;;;;;;;5003883;28;20289;-78
2022/03/31 21:21:55;;;;;;;236.80;48.73;;;;;;;;;;4996115;28;20230;-79
2022/03/31 21:24:22;;;;;;;282.83;48.87;;;;;;;;;;5003831;28;20214;-79
2022/03/31 21:29:20;;;;;;;285.20;49.13;;;;;;;;;;5048191;28;20235;-77
2022/03/31 21:31:48;;;;;;;207.93;46.93;;;;;;;;;;5050107;28;20201;-77
2022/03/31 21:34:16;;;;;;;247.00;48.03;;;;;;;;;;5051173;28;20212;-77
2022/03/31 21:36:43;;;;;;;251.53;48.17;;;;;;;;;;5045521;28;20294;-77
2022/03/31 21:39:11;;;;;;;290.57;49.10;;;;;;;;;;5050404;28;20207;-77
2022/03/31 21:41:38;;;;;;;286.87;44.63;;;;;;;;;;5049714;28;20205;-77
2022/03/31 21:44:06;;;;;;;257.57;46.97;;;;;;;;;;5050641;28;20193;-77
2022/03/31 21:46:35;;;;;;;263.40;46.23;;;;;;;;;;5050621;28;20205;-77
2022/03/31 21:49:03;;;;;;;164.70;39.77;;;;;;;;;;5050655;28;20252;-78
2022/03/31 21:51:30;;;;;;;198.43;41.63;;;;;;;;;;5050824;28;20205;-77
2022/03/31 21:53:57;;;;;;;214.37;44.10;;;;;;;;;;5050495;28;20201;-77
2022/03/31 21:56:25;;;;;;;203.07;42.17;;;;;;;;;;5050510;28;20217;-76
2022/03/31 21:58:52;;;;;;;260.83;46.47;;;;;;;;;;5050527;28;20221;-77
2022/03/31 22:01:30;;;;;;;257.43;43.90;;;;;;;;;;5050733;28;20205;-76
2022/03/31 22:03:59;;;;;;;186.27;40.97;;;;;;;;;;5050528;28;20208;-77
2022/03/31 22:06:27;;;;;;;200.67;41.70;;;;;;;;;;5050406;28;20387;-77
2022/03/31 22:11:41;;;;;;;162.50;41.00;;;;;;;;;;5050954;28;20288;-77
2022/03/31 22:14:12;;;;;;;189.17;39.43;;;;;;;;;;5053912;28;20208;-77
2022/03/31 22:16:40;;;;;;;320.37;43.87;;;;;;;;;;5054301;28;20217;-77
2022/03/31 22:19:09;;;;;;;231.53;43.00;;;;;;;;;;5054054;28;20228;-76
2022/03/31 22:21:38;;;;;;;273.17;43.17;;;;;;;;;;5054466;28;20292;-77
2022/03/31 22:24:06;;;;;;;245.07;45.40;;;;;;;;;;5053906;28;20273;-76
2022/03/31 22:26:33;;;;;;;211.10;42.90;;;;;;;;;;5054223;28;20197;-77
2022/03/31 22:29:01;;;;;;;192.67;42.97;;;;;;;;;;5054077;28;20278;-76
2022/03/31 22:31:28;;;;;;;253.13;43.87;;;;;;;;;;5051784;28;20201;-76
2022/03/31 22:33:56;;;;;;;234.10;44.10;;;;;;;;;;5053817;28;20201;-76
2022/03/31 22:36:25;;;;;;;245.60;42.07;;;;;;;;;;5054007;28;20212;-77
2022/03/31 22:38:52;;;;;;;310.67;44.00;;;;;;;;;;5053971;28;20260;-77
2022/03/31 22:41:19;;;;;;;268.93;43.03;;;;;;;;;;5054157;28;20235;-76
2022/03/31 22:43:47;;;;;;;260.13;42.70;;;;;;;;;;5053716;28;20220;-77
2022/03/31 22:46:15;;;;;;;162.97;40.63;;;;;;;;;;5053601;28;20206;-77
2022/03/31 22:48:43;;;;;;;190.17;40.80;;;;;;;;;;5053497;28;20248;-77
2022/03/31 22:51:10;;;;;;;223.87;40.53;;;;;;;;;;5053700;28;20205;-76
2022/03/31 22:53:40;;;;;;;218.73;40.40;;;;;;;;;;5053660;28;20269;-76
2022/03/31 22:56:07;;;;;;;159.43;38.23;;;;;;;;;;5053425;28;20292;-77
2022/03/31 22:58:35;;;;;;;193.17;39.20;;;;;;;;;;5053280;28;20221;-77
2022/03/31 23:01:03;;;;;;;191.43;37.77;;;;;;;;;;5053997;28;20244;-77
2022/03/31 23:03:30;;;;;;;228.33;36.87;;;;;;;;;;5053374;28;20202;-76
2022/03/31 23:05:57;;;;;;;135.90;34.87;;;;;;;;;;5053502;28;20202;-77
2022/03/31 23:08:25;;;;;;;144.60;37.67;;;;;;;;;;5053085;28;20220;-77
2022/03/31 23:10:54;;;;;;;204.17;37.37;;;;;;;;;;5053346;28;20202;-77
2022/03/31 23:13:24;;;;;;;185.13;36.07;;;;;;;;;;5053066;28;20306;-76
2022/03/31 23:15:51;;;;;;;174.60;35.20;;;;;;;;;;5052943;28;20304;-77
2022/03/31 23:18:18;;;;;;;193.87;36.70;;;;;;;;;;5052962;28;20305;-76
2022/03/31 23:20:46;;;;;;;223.27;35.53;;;;;;;;;;5053160;28;20221;-76
2022/03/31 23:23:14;;;;;;;275.33;36.90;;;;;;;;;;5053130;28;20206;-77
2022/03/31 23:25:42;;;;;;;212.67;37.00;;;;;;;;;;5052700;28;20205;-77
2022/03/31 23:28:10;;;;;;;215.93;38.43;;;;;;;;;;5052853;28;20239;-77
2022/03/31 23:30:38;;;;;;;195.57;37.63;;;;;;;;;;5052878;28;20197;-77
2022/03/31 23:33:08;;;;;;;220.13;36.93;;;;;;;;;;5053365;28;20243;-77
2022/03/31 23:35:35;;;;;;;191.27;36.97;;;;;;;;;;5052440;28;20201;-77
2022/03/31 23:38:02;;;;;;;256.00;37.87;;;;;;;;;;5052744;28;20229;-77
2022/03/31 23:40:29;;;;;;;205.50;36.17;;;;;;;;;;5052534;28;20285;-77
2022/03/31 23:42:57;;;;;;;206.60;38.10;;;;;;;;;;5052944;28;20212;-77
2022/03/31 23:45:26;;;;;;;175.93;38.47;;;;;;;;;;5052134;28;20205;-76
2022/03/31 23:47:54;;;;;;;249.70;37.70;;;;;;;;;;5052401;28;20217;-77
2022/03/31 23:50:21;;;;;;;210.10;35.37;;;;;;;;;;5052495;28;20295;-77
2022/03/31 23:52:48;;;;;;;220.50;35.70;;;;;;;;;;5052423;28;20209;-76
2022/03/31 23:55:17;;;;;;;147.40;35.60;;;;;;;;;;5052010;28;20205;-77
2022/03/31 23:57:44;;;;;;;176.47;36.43;;;;;;;;;;5052612;28;20228;-76
